North Dartmouth, Massachusetts
Current Conditions -  °F | °C
As of 6:53 PM on Thursday 18 Dec 2014 (Local Time) from KEWB Reporting Station
Overcast Overcast  
Wind Chill: 31°   Ceiling: 3500
Heat Index: 38°   Visibility: 10mi
Dew Point: 28°   Wind: 10mph
Humidity: 68%   Direction: 260°W
Pressure: 29.86"   Gusts: NA
Location:  41.64°N, 70.97°W
Report Text: KEWB 182353Z 26009KT 10SM OVC035 03/M02 A2986 RMK AO2 SLP112 T00331022 10072 20033 53016
Loading
Personal Weather Stations






























Interactive Weather Map New forecast layout! Learn more

10-Day Weather Forecast

Advertisements
Track Severe Weather on mobile